sensor_id;sensor_type;location;lat;lon;timestamp;pressure;altitude;pressure_sealevel;temperature;humidity
69411;BME280;56604;48.652;9.194;2022-08-01T00:00:22;96405.88;;;20.56;51.67
69411;BME280;56604;48.652;9.194;2022-08-01T00:02:47;96401.78;;;20.58;51.30
69411;BME280;56604;48.652;9.194;2022-08-01T00:05:12;96400.81;;;20.54;51.49
69411;BME280;56604;48.652;9.194;2022-08-01T00:07:38;96409.41;;;20.51;51.69
69411;BME280;56604;48.652;9.194;2022-08-01T00:10:06;96404.09;;;20.51;51.82
69411;BME280;56604;48.652;9.194;2022-08-01T00:12:32;96405.69;;;20.52;51.87
69411;BME280;56604;48.652;9.194;2022-08-01T00:14:58;96407.28;;;20.53;51.83
69411;BME280;56604;48.652;9.194;2022-08-01T00:17:23;96408.47;;;20.47;51.92
69411;BME280;56604;48.652;9.194;2022-08-01T00:19:48;96399.81;;;20.41;51.93
69411;BME280;56604;48.652;9.194;2022-08-01T00:22:13;96400.72;;;20.37;52.00
69411;BME280;56604;48.652;9.194;2022-08-01T00:24:39;96403.88;;;20.39;52.09
69411;BME280;56604;48.652;9.194;2022-08-01T00:27:04;96405.41;;;20.31;52.42
69411;BME280;56604;48.652;9.194;2022-08-01T00:29:30;96410.13;;;20.34;52.55
69411;BME280;56604;48.652;9.194;2022-08-01T00:31:55;96405.72;;;20.30;52.20
69411;BME280;56604;48.652;9.194;2022-08-01T00:34:20;96412.75;;;20.26;52.88
69411;BME280;56604;48.652;9.194;2022-08-01T00:36:46;96411.50;;;20.23;52.76
69411;BME280;56604;48.652;9.194;2022-08-01T00:39:12;96410.84;;;20.17;52.96
69411;BME280;56604;48.652;9.194;2022-08-01T00:41:37;96414.00;;;20.19;53.00
69411;BME280;56604;48.652;9.194;2022-08-01T00:44:05;96419.59;;;20.09;53.22
69411;BME280;56604;48.652;9.194;2022-08-01T00:46:32;96416.06;;;20.00;53.55
69411;BME280;56604;48.652;9.194;2022-08-01T00:48:58;96410.75;;;20.00;53.69
69411;BME280;56604;48.652;9.194;2022-08-01T00:51:24;96412.94;;;19.98;53.60
69411;BME280;56604;48.652;9.194;2022-08-01T00:53:50;96407.41;;;19.94;53.62
69411;BME280;56604;48.652;9.194;2022-08-01T00:56:16;96408.19;;;19.95;53.87
69411;BME280;56604;48.652;9.194;2022-08-01T00:58:42;96410.88;;;19.95;53.71
69411;BME280;56604;48.652;9.194;2022-08-01T01:01:09;96416.16;;;19.86;54.05
69411;BME280;56604;48.652;9.194;2022-08-01T01:03:34;96418.53;;;19.88;53.92
69411;BME280;56604;48.652;9.194;2022-08-01T01:08:45;96411.13;;;19.85;54.46
69411;BME280;56604;48.652;9.194;2022-08-01T01:11:32;96412.63;;;19.77;54.87
69411;BME280;56604;48.652;9.194;2022-08-01T01:14:04;96420.97;;;19.75;54.58
69411;BME280;56604;48.652;9.194;2022-08-01T01:16:35;96412.34;;;19.79;54.57
69411;BME280;56604;48.652;9.194;2022-08-01T01:19:08;96419.47;;;19.69;54.73
69411;BME280;56604;48.652;9.194;2022-08-01T01:24:33;96421.56;;;19.72;54.99
69411;BME280;56604;48.652;9.194;2022-08-01T01:27:13;96425.31;;;19.71;54.70
69411;BME280;56604;48.652;9.194;2022-08-01T01:29:46;96420.66;;;19.77;54.95
69411;BME280;56604;48.652;9.194;2022-08-01T01:32:18;96417.19;;;19.76;55.05
69411;BME280;56604;48.652;9.194;2022-08-01T01:34:45;96428.66;;;19.77;55.10
69411;BME280;56604;48.652;9.194;2022-08-01T01:37:16;96422.34;;;19.73;54.96
69411;BME280;56604;48.652;9.194;2022-08-01T01:39:43;96427.38;;;19.74;55.27
69411;BME280;56604;48.652;9.194;2022-08-01T01:42:09;96430.72;;;19.80;55.25
69411;BME280;56604;48.652;9.194;2022-08-01T01:44:36;96427.25;;;19.80;55.13
69411;BME280;56604;48.652;9.194;2022-08-01T01:47:02;96427.09;;;19.76;55.34
69411;BME280;56604;48.652;9.194;2022-08-01T01:49:29;96430.34;;;19.73;55.28
69411;BME280;56604;48.652;9.194;2022-08-01T01:51:57;96427.97;;;19.71;55.75
69411;BME280;56604;48.652;9.194;2022-08-01T01:54:27;96428.97;;;19.75;55.40
69411;BME280;56604;48.652;9.194;2022-08-01T01:56:56;96429.38;;;19.69;55.58
69411;BME280;56604;48.652;9.194;2022-08-01T01:59:25;96439.94;;;19.60;56.05
69411;BME280;56604;48.652;9.194;2022-08-01T02:01:52;96434.00;;;19.63;56.10
69411;BME280;56604;48.652;9.194;2022-08-01T02:04:21;96435.59;;;19.64;56.01
69411;BME280;56604;48.652;9.194;2022-08-01T02:06:50;96433.16;;;19.54;56.21
69411;BME280;56604;48.652;9.194;2022-08-01T02:09:20;96430.19;;;19.55;56.11
69411;BME280;56604;48.652;9.194;2022-08-01T02:11:47;96430.47;;;19.54;56.38
69411;BME280;56604;48.652;9.194;2022-08-01T02:14:14;96426.13;;;19.58;56.40
69411;BME280;56604;48.652;9.194;2022-08-01T02:16:43;96429.38;;;19.55;56.51
69411;BME280;56604;48.652;9.194;2022-08-01T02:19:09;96433.47;;;19.52;56.59
69411;BME280;56604;48.652;9.194;2022-08-01T02:21:49;96436.91;;;19.53;56.82
69411;BME280;56604;48.652;9.194;2022-08-01T02:26:50;96433.88;;;19.46;57.23
69411;BME280;56604;48.652;9.194;2022-08-01T02:29:22;96438.59;;;19.49;57.40
69411;BME280;56604;48.652;9.194;2022-08-01T02:31:51;96437.63;;;19.45;57.75
69411;BME280;56604;48.652;9.194;2022-08-01T02:34:20;96437.75;;;19.40;57.79
69411;BME280;56604;48.652;9.194;2022-08-01T02:36:47;96437.63;;;19.45;57.60
69411;BME280;56604;48.652;9.194;2022-08-01T02:39:16;96423.69;;;19.48;58.08
69411;BME280;56604;48.652;9.194;2022-08-01T02:41:46;96434.59;;;19.60;57.93
69411;BME280;56604;48.652;9.194;2022-08-01T02:44:23;96431.75;;;19.70;57.43
69411;BME280;56604;48.652;9.194;2022-08-01T02:46:52;96440.91;;;19.78;57.33
69411;BME280;56604;48.652;9.194;2022-08-01T02:49:19;96433.19;;;19.76;57.52
69411;BME280;56604;48.652;9.194;2022-08-01T02:51:48;96435.97;;;19.71;57.50
69411;BME280;56604;48.652;9.194;2022-08-01T02:54:17;96438.53;;;19.76;57.53
69411;BME280;56604;48.652;9.194;2022-08-01T02:56:43;96439.50;;;19.81;57.63
69411;BME280;56604;48.652;9.194;2022-08-01T02:59:13;96437.31;;;19.83;57.36
69411;BME280;56604;48.652;9.194;2022-08-01T03:01:40;96431.97;;;19.83;57.53
69411;BME280;56604;48.652;9.194;2022-08-01T03:04:08;96437.31;;;19.83;57.54
69411;BME280;56604;48.652;9.194;2022-08-01T03:06:35;96442.16;;;19.81;57.82
69411;BME280;56604;48.652;9.194;2022-08-01T03:09:03;96440.31;;;19.81;58.55
69411;BME280;56604;48.652;9.194;2022-08-01T03:11:30;96441.50;;;19.75;58.40
69411;BME280;56604;48.652;9.194;2022-08-01T03:14:02;96444.47;;;19.73;58.26
69411;BME280;56604;48.652;9.194;2022-08-01T03:16:28;96435.38;;;19.74;58.31
69411;BME280;56604;48.652;9.194;2022-08-01T03:18:56;96437.78;;;19.62;58.37
69411;BME280;56604;48.652;9.194;2022-08-01T03:21:24;96447.59;;;19.53;58.70
69411;BME280;56604;48.652;9.194;2022-08-01T03:23:52;96444.66;;;19.63;58.66
69411;BME280;56604;48.652;9.194;2022-08-01T03:26:24;96441.31;;;19.58;58.59
69411;BME280;56604;48.652;9.194;2022-08-01T03:28:55;96443.03;;;19.53;58.63
69411;BME280;56604;48.652;9.194;2022-08-01T03:31:22;96438.00;;;19.52;58.97
69411;BME280;56604;48.652;9.194;2022-08-01T03:33:47;96444.13;;;19.52;59.03
69411;BME280;56604;48.652;9.194;2022-08-01T03:36:13;96447.91;;;19.38;59.42
69411;BME280;56604;48.652;9.194;2022-08-01T03:38:40;96443.19;;;19.35;59.67
69411;BME280;56604;48.652;9.194;2022-08-01T03:41:19;96443.19;;;19.35;59.49
69411;BME280;56604;48.652;9.194;2022-08-01T03:43:56;96444.97;;;19.25;60.03
69411;BME280;56604;48.652;9.194;2022-08-01T03:46:29;96447.66;;;19.25;60.15
69411;BME280;56604;48.652;9.194;2022-08-01T03:49:00;96448.16;;;19.27;60.29
69411;BME280;56604;48.652;9.194;2022-08-01T03:51:29;96445.38;;;19.32;60.32
69411;BME280;56604;48.652;9.194;2022-08-01T03:53:56;96436.00;;;19.21;60.39
69411;BME280;56604;48.652;9.194;2022-08-01T03:56:26;96435.41;;;19.24;60.71
69411;BME280;56604;48.652;9.194;2022-08-01T03:58:53;96436.28;;;19.33;60.36
69411;BME280;56604;48.652;9.194;2022-08-01T04:01:19;96442.31;;;19.25;60.91
69411;BME280;56604;48.652;9.194;2022-08-01T04:03:44;96443.38;;;19.38;60.73
69411;BME280;56604;48.652;9.194;2022-08-01T04:06:10;96438.91;;;19.47;60.54
69411;BME280;56604;48.652;9.194;2022-08-01T04:08:36;96438.75;;;19.66;60.05
69411;BME280;56604;48.652;9.194;2022-08-01T04:11:02;96440.81;;;19.92;59.11
69411;BME280;56604;48.652;9.194;2022-08-01T04:13:27;96434.16;;;20.03;59.00
69411;BME280;56604;48.652;9.194;2022-08-01T04:15:53;96437.28;;;20.28;58.24
69411;BME280;56604;48.652;9.194;2022-08-01T04:18:18;96436.06;;;20.65;57.45
69411;BME280;56604;48.652;9.194;2022-08-01T04:20:46;96446.25;;;21.03;56.58
69411;BME280;56604;48.652;9.194;2022-08-01T04:23:13;96443.84;;;21.41;55.23
69411;BME280;56604;48.652;9.194;2022-08-01T04:25:41;96445.22;;;21.91;54.21
69411;BME280;56604;48.652;9.194;2022-08-01T04:28:10;96447.56;;;22.27;52.83
69411;BME280;56604;48.652;9.194;2022-08-01T04:30:42;96450.34;;;22.95;51.90
69411;BME280;56604;48.652;9.194;2022-08-01T04:33:11;96444.16;;;23.24;50.54
69411;BME280;56604;48.652;9.194;2022-08-01T04:35:39;96460.16;;;23.42;50.89
69411;BME280;56604;48.652;9.194;2022-08-01T04:38:08;96455.19;;;23.94;49.22
69411;BME280;56604;48.652;9.194;2022-08-01T04:40:35;96451.91;;;24.67;47.41
69411;BME280;56604;48.652;9.194;2022-08-01T04:43:02;96451.28;;;25.07;46.14
69411;BME280;56604;48.652;9.194;2022-08-01T04:45:28;96455.28;;;25.38;45.87
69411;BME280;56604;48.652;9.194;2022-08-01T04:47:54;96454.19;;;26.08;43.87
69411;BME280;56604;48.652;9.194;2022-08-01T04:50:22;96463.78;;;26.21;43.88
69411;BME280;56604;48.652;9.194;2022-08-01T04:52:48;96463.69;;;26.77;43.29
69411;BME280;56604;48.652;9.194;2022-08-01T04:55:13;96465.38;;;25.94;43.92
69411;BME280;56604;48.652;9.194;2022-08-01T04:57:43;96474.25;;;24.35;48.00
69411;BME280;56604;48.652;9.194;2022-08-01T05:00:10;96469.31;;;23.62;49.55
69411;BME280;56604;48.652;9.194;2022-08-01T05:02:36;96471.16;;;22.89;51.56
69411;BME280;56604;48.652;9.194;2022-08-01T05:05:01;96480.09;;;22.64;52.02
69411;BME280;56604;48.652;9.194;2022-08-01T05:07:26;96471.88;;;23.07;51.32
69411;BME280;56604;48.652;9.194;2022-08-01T05:09:52;96459.88;;;24.64;47.96
69411;BME280;56604;48.652;9.194;2022-08-01T05:12:17;96462.09;;;25.60;46.33
69411;BME280;56604;48.652;9.194;2022-08-01T05:14:43;96460.22;;;26.92;43.35
69411;BME280;56604;48.652;9.194;2022-08-01T05:17:09;96447.03;;;28.16;40.55
69411;BME280;56604;48.652;9.194;2022-08-01T05:19:36;96446.56;;;28.53;39.79
69411;BME280;56604;48.652;9.194;2022-08-01T05:22:04;96453.16;;;28.79;39.77
69411;BME280;56604;48.652;9.194;2022-08-01T05:24:36;96456.06;;;28.24;40.26
69411;BME280;56604;48.652;9.194;2022-08-01T05:27:03;96462.47;;;27.22;41.60
69411;BME280;56604;48.652;9.194;2022-08-01T05:29:28;96452.41;;;26.56;43.77
69411;BME280;56604;48.652;9.194;2022-08-01T05:31:53;96453.88;;;26.53;43.20
69411;BME280;56604;48.652;9.194;2022-08-01T05:34:19;96448.78;;;27.31;42.00
69411;BME280;56604;48.652;9.194;2022-08-01T05:36:45;96454.81;;;26.61;43.73
69411;BME280;56604;48.652;9.194;2022-08-01T05:39:12;96441.09;;;28.07;40.95
69411;BME280;56604;48.652;9.194;2022-08-01T05:41:37;96444.91;;;28.95;38.91
69411;BME280;56604;48.652;9.194;2022-08-01T05:44:06;96440.69;;;31.55;35.17
69411;BME280;56604;48.652;9.194;2022-08-01T05:46:31;96447.16;;;32.16;33.70
69411;BME280;56604;48.652;9.194;2022-08-01T05:48:58;96450.34;;;32.47;33.35
69411;BME280;56604;48.652;9.194;2022-08-01T05:51:23;96451.44;;;32.21;33.32
69411;BME280;56604;48.652;9.194;2022-08-01T05:53:48;96457.31;;;33.41;32.05
69411;BME280;56604;48.652;9.194;2022-08-01T05:56:14;96451.88;;;33.45;32.80
69411;BME280;56604;48.652;9.194;2022-08-01T05:58:40;96460.72;;;34.62;31.42
69411;BME280;56604;48.652;9.194;2022-08-01T06:01:05;96450.47;;;35.22;30.08
69411;BME280;56604;48.652;9.194;2022-08-01T06:03:30;96456.06;;;34.59;31.23
69411;BME280;56604;48.652;9.194;2022-08-01T06:05:58;96455.09;;;35.66;29.92
69411;BME280;56604;48.652;9.194;2022-08-01T06:08:24;96452.69;;;34.92;30.16
69411;BME280;56604;48.652;9.194;2022-08-01T06:10:49;96466.88;;;34.07;31.96
69411;BME280;56604;48.652;9.194;2022-08-01T06:13:14;96460.28;;;33.90;32.15
69411;BME280;56604;48.652;9.194;2022-08-01T06:15:40;96468.06;;;31.98;34.50
69411;BME280;56604;48.652;9.194;2022-08-01T06:18:05;96469.75;;;31.44;36.25
69411;BME280;56604;48.652;9.194;2022-08-01T06:20:31;96464.78;;;31.01;37.09
69411;BME280;56604;48.652;9.194;2022-08-01T06:22:57;96462.50;;;30.62;37.37
69411;BME280;56604;48.652;9.194;2022-08-01T06:25:22;96472.50;;;30.51;37.57
69411;BME280;56604;48.652;9.194;2022-08-01T06:27:48;96466.19;;;30.40;38.14
69411;BME280;56604;48.652;9.194;2022-08-01T06:30:15;96472.75;;;30.05;38.12
69411;BME280;56604;48.652;9.194;2022-08-01T06:32:40;96469.94;;;29.94;38.64
69411;BME280;56604;48.652;9.194;2022-08-01T06:35:06;96464.66;;;31.39;36.71
69411;BME280;56604;48.652;9.194;2022-08-01T06:37:33;96465.13;;;32.46;35.02
69411;BME280;56604;48.652;9.194;2022-08-01T06:40:08;96460.50;;;33.00;33.46
69411;BME280;56604;48.652;9.194;2022-08-01T06:42:34;96456.19;;;32.81;33.58
69411;BME280;56604;48.652;9.194;2022-08-01T06:45:08;96456.84;;;33.75;33.00
69411;BME280;56604;48.652;9.194;2022-08-01T06:47:34;96465.09;;;33.46;33.60
69411;BME280;56604;48.652;9.194;2022-08-01T06:50:00;96465.16;;;32.96;32.86
69411;BME280;56604;48.652;9.194;2022-08-01T06:52:25;96472.78;;;32.15;34.56
69411;BME280;56604;48.652;9.194;2022-08-01T06:54:51;96476.03;;;31.55;35.43
69411;BME280;56604;48.652;9.194;2022-08-01T06:57:17;96471.59;;;31.32;35.73
69411;BME280;56604;48.652;9.194;2022-08-01T06:59:42;96474.97;;;31.77;35.89
69411;BME280;56604;48.652;9.194;2022-08-01T07:02:08;96476.34;;;31.43;35.50
69411;BME280;56604;48.652;9.194;2022-08-01T07:04:34;96481.78;;;31.43;35.19
69411;BME280;56604;48.652;9.194;2022-08-01T07:06:59;96466.31;;;31.54;34.77
69411;BME280;56604;48.652;9.194;2022-08-01T07:09:26;96471.56;;;31.95;34.48
69411;BME280;56604;48.652;9.194;2022-08-01T07:11:53;96466.63;;;32.36;33.78
69411;BME280;56604;48.652;9.194;2022-08-01T07:14:21;96461.25;;;33.04;32.66
69411;BME280;56604;48.652;9.194;2022-08-01T07:16:47;96462.38;;;33.35;32.27
69411;BME280;56604;48.652;9.194;2022-08-01T07:19:12;96464.78;;;34.32;30.81
69411;BME280;56604;48.652;9.194;2022-08-01T07:21:38;96463.06;;;34.60;30.80
69411;BME280;56604;48.652;9.194;2022-08-01T07:24:05;96470.09;;;34.57;29.97
69411;BME280;56604;48.652;9.194;2022-08-01T07:26:31;96468.66;;;34.38;31.02
69411;BME280;56604;48.652;9.194;2022-08-01T07:28:56;96473.94;;;35.57;29.12
69411;BME280;56604;48.652;9.194;2022-08-01T07:31:21;96469.28;;;34.64;30.73
69411;BME280;56604;48.652;9.194;2022-08-01T07:33:48;96473.63;;;35.06;29.77
69411;BME280;56604;48.652;9.194;2022-08-01T07:36:13;96474.09;;;32.75;32.43
69411;BME280;56604;48.652;9.194;2022-08-01T07:38:38;96465.88;;;33.57;32.06
69411;BME280;56604;48.652;9.194;2022-08-01T07:41:04;96467.47;;;33.23;33.44
69411;BME280;56604;48.652;9.194;2022-08-01T07:43:29;96465.16;;;33.25;32.15
69411;BME280;56604;48.652;9.194;2022-08-01T07:45:54;96458.25;;;34.75;30.68
69411;BME280;56604;48.652;9.194;2022-08-01T07:48:20;96462.81;;;34.92;30.76
69411;BME280;56604;48.652;9.194;2022-08-01T07:50:49;96469.06;;;34.92;30.49
69411;BME280;56604;48.652;9.194;2022-08-01T07:53:14;96459.91;;;35.55;29.78
69411;BME280;56604;48.652;9.194;2022-08-01T07:55:39;96465.84;;;35.80;28.81
69411;BME280;56604;48.652;9.194;2022-08-01T07:58:05;96458.78;;;36.17;28.50
69411;BME280;56604;48.652;9.194;2022-08-01T08:00:30;96459.19;;;36.16;29.20
69411;BME280;56604;48.652;9.194;2022-08-01T08:02:56;96458.47;;;35.77;29.50
69411;BME280;56604;48.652;9.194;2022-08-01T08:05:24;96457.25;;;35.82;29.50
69411;BME280;56604;48.652;9.194;2022-08-01T08:07:49;96459.00;;;35.65;29.26
69411;BME280;56604;48.652;9.194;2022-08-01T08:10:14;96453.25;;;35.56;29.53
69411;BME280;56604;48.652;9.194;2022-08-01T08:12:40;96457.91;;;35.18;30.14
69411;BME280;56604;48.652;9.194;2022-08-01T08:15:05;96455.31;;;35.45;29.63
69411;BME280;56604;48.652;9.194;2022-08-01T08:17:31;96445.59;;;35.78;30.01
69411;BME280;56604;48.652;9.194;2022-08-01T08:19:57;96451.63;;;36.54;28.22
69411;BME280;56604;48.652;9.194;2022-08-01T08:22:22;96449.69;;;36.24;28.76
69411;BME280;56604;48.652;9.194;2022-08-01T08:24:48;96449.75;;;36.47;28.23
69411;BME280;56604;48.652;9.194;2022-08-01T08:27:13;96447.31;;;35.23;30.30
69411;BME280;56604;48.652;9.194;2022-08-01T08:29:39;96450.44;;;34.77;31.24
69411;BME280;56604;48.652;9.194;2022-08-01T08:32:05;96445.06;;;34.69;30.54
69411;BME280;56604;48.652;9.194;2022-08-01T08:34:30;96457.25;;;34.51;30.80
69411;BME280;56604;48.652;9.194;2022-08-01T08:36:56;96446.75;;;34.45;31.18
69411;BME280;56604;48.652;9.194;2022-08-01T08:39:23;96448.78;;;32.92;32.91
69411;BME280;56604;48.652;9.194;2022-08-01T08:41:48;96445.69;;;32.47;33.73
69411;BME280;56604;48.652;9.194;2022-08-01T08:44:14;96442.31;;;34.10;31.32
69411;BME280;56604;48.652;9.194;2022-08-01T08:46:46;96454.72;;;34.78;30.52
69411;BME280;56604;48.652;9.194;2022-08-01T08:49:18;96450.66;;;35.42;29.65
69411;BME280;56604;48.652;9.194;2022-08-01T08:51:48;96452.19;;;36.15;28.93
69411;BME280;56604;48.652;9.194;2022-08-01T08:54:14;96445.41;;;35.20;29.89
69411;BME280;56604;48.652;9.194;2022-08-01T08:56:40;96441.75;;;34.92;30.34
69411;BME280;56604;48.652;9.194;2022-08-01T08:59:06;96442.06;;;35.40;29.11
69411;BME280;56604;48.652;9.194;2022-08-01T09:01:32;96440.59;;;34.34;31.49
69411;BME280;56604;48.652;9.194;2022-08-01T09:03:58;96449.41;;;33.83;31.74
69411;BME280;56604;48.652;9.194;2022-08-01T09:06:24;96453.31;;;33.81;31.93
69411;BME280;56604;48.652;9.194;2022-08-01T09:08:49;96448.72;;;33.57;32.37
69411;BME280;56604;48.652;9.194;2022-08-01T09:11:14;96455.25;;;33.88;31.53
69411;BME280;56604;48.652;9.194;2022-08-01T09:13:40;96454.59;;;34.40;30.78
69411;BME280;56604;48.652;9.194;2022-08-01T09:16:05;96445.59;;;33.51;32.35
69411;BME280;56604;48.652;9.194;2022-08-01T09:18:37;96445.16;;;34.52;30.82
69411;BME280;56604;48.652;9.194;2022-08-01T09:23:36;96447.09;;;35.07;30.44
69411;BME280;56604;48.652;9.194;2022-08-01T09:26:05;96449.03;;;35.48;29.70
69411;BME280;56604;48.652;9.194;2022-08-01T09:28:31;96453.97;;;34.03;30.87
69411;BME280;56604;48.652;9.194;2022-08-01T09:30:57;96450.28;;;33.58;31.54
69411;BME280;56604;48.652;9.194;2022-08-01T09:33:22;96451.09;;;33.37;32.58
69411;BME280;56604;48.652;9.194;2022-08-01T09:35:55;96451.03;;;33.73;32.58
69411;BME280;56604;48.652;9.194;2022-08-01T09:38:22;96456.91;;;32.39;32.38
69411;BME280;56604;48.652;9.194;2022-08-01T09:40:55;96456.88;;;32.24;33.86
69411;BME280;56604;48.652;9.194;2022-08-01T09:43:23;96450.34;;;32.68;33.38
69411;BME280;56604;48.652;9.194;2022-08-01T09:45:49;96456.78;;;31.23;36.50
69411;BME280;56604;48.652;9.194;2022-08-01T09:48:15;96452.66;;;31.40;35.91
69411;BME280;56604;48.652;9.194;2022-08-01T09:50:46;96457.69;;;31.38;35.49
69411;BME280;56604;48.652;9.194;2022-08-01T09:53:12;96452.06;;;30.68;36.73
69411;BME280;56604;48.652;9.194;2022-08-01T09:55:39;96451.28;;;31.12;35.97
69411;BME280;56604;48.652;9.194;2022-08-01T09:58:05;96446.88;;;31.52;34.84
69411;BME280;56604;48.652;9.194;2022-08-01T10:00:32;96444.16;;;30.11;37.61
69411;BME280;56604;48.652;9.194;2022-08-01T10:02:58;96441.50;;;29.81;38.95
69411;BME280;56604;48.652;9.194;2022-08-01T10:05:34;96439.88;;;30.47;38.69
69411;BME280;56604;48.652;9.194;2022-08-01T10:08:03;96439.38;;;32.15;35.25
69411;BME280;56604;48.652;9.194;2022-08-01T10:10:29;96437.53;;;32.62;34.18
69411;BME280;56604;48.652;9.194;2022-08-01T10:12:58;96432.47;;;32.82;32.75
69411;BME280;56604;48.652;9.194;2022-08-01T10:15:25;96427.00;;;32.53;32.84
69411;BME280;56604;48.652;9.194;2022-08-01T10:17:55;96414.25;;;34.06;32.32
69411;BME280;56604;48.652;9.194;2022-08-01T10:20:27;96428.97;;;33.06;32.87
69411;BME280;56604;48.652;9.194;2022-08-01T10:22:59;96427.78;;;32.72;33.57
69411;BME280;56604;48.652;9.194;2022-08-01T10:25:27;96430.41;;;31.23;35.33
69411;BME280;56604;48.652;9.194;2022-08-01T10:27:54;96426.16;;;31.29;35.94
69411;BME280;56604;48.652;9.194;2022-08-01T10:30:23;96430.28;;;29.26;38.46
69411;BME280;56604;48.652;9.194;2022-08-01T10:32:50;96432.66;;;28.78;39.62
69411;BME280;56604;48.652;9.194;2022-08-01T10:35:17;96422.16;;;28.73;40.14
69411;BME280;56604;48.652;9.194;2022-08-01T10:37:46;96428.25;;;28.23;41.04
69411;BME280;56604;48.652;9.194;2022-08-01T10:40:15;96427.38;;;29.11;39.81
69411;BME280;56604;48.652;9.194;2022-08-01T10:42:45;96421.78;;;29.84;38.55
69411;BME280;56604;48.652;9.194;2022-08-01T10:45:13;96418.13;;;30.44;38.18
69411;BME280;56604;48.652;9.194;2022-08-01T10:47:48;96410.44;;;30.50;36.37
69411;BME280;56604;48.652;9.194;2022-08-01T10:50:31;96408.88;;;30.48;37.79
69411;BME280;56604;48.652;9.194;2022-08-01T10:53:11;96407.72;;;30.94;36.86
69411;BME280;56604;48.652;9.194;2022-08-01T10:55:47;96413.69;;;30.66;38.16
69411;BME280;56604;48.652;9.194;2022-08-01T10:58:13;96412.00;;;30.51;39.10
69411;BME280;56604;48.652;9.194;2022-08-01T11:00:38;96407.31;;;30.47;37.81
69411;BME280;56604;48.652;9.194;2022-08-01T11:03:04;96421.53;;;29.36;40.45
69411;BME280;56604;48.652;9.194;2022-08-01T11:05:34;96409.63;;;29.14;40.46
69411;BME280;56604;48.652;9.194;2022-08-01T11:08:07;96409.53;;;29.64;39.88
69411;BME280;56604;48.652;9.194;2022-08-01T11:10:39;96405.06;;;29.78;38.57
69411;BME280;56604;48.652;9.194;2022-08-01T11:13:06;96411.94;;;29.42;39.04
69411;BME280;56604;48.652;9.194;2022-08-01T11:15:37;96408.28;;;29.57;38.79
69411;BME280;56604;48.652;9.194;2022-08-01T11:18:28;96410.28;;;29.34;38.76
69411;BME280;56604;48.652;9.194;2022-08-01T11:21:00;96404.22;;;29.44;39.67
69411;BME280;56604;48.652;9.194;2022-08-01T11:23:27;96406.72;;;29.26;39.24
69411;BME280;56604;48.652;9.194;2022-08-01T11:28:26;96410.47;;;29.18;39.71
69411;BME280;56604;48.652;9.194;2022-08-01T11:30:53;96408.31;;;28.78;40.80
69411;BME280;56604;48.652;9.194;2022-08-01T11:38:37;96405.19;;;27.87;42.16
69411;BME280;56604;48.652;9.194;2022-08-01T11:44:16;96396.06;;;28.38;42.53
69411;BME280;56604;48.652;9.194;2022-08-01T11:46:49;96406.91;;;28.41;42.80
69411;BME280;56604;48.652;9.194;2022-08-01T11:54:41;96397.84;;;28.30;42.21
69411;BME280;56604;48.652;9.194;2022-08-01T11:57:09;96400.97;;;28.09;43.17
69411;BME280;56604;48.652;9.194;2022-08-01T11:59:42;96395.69;;;27.97;43.24
69411;BME280;56604;48.652;9.194;2022-08-01T12:02:30;96386.19;;;27.64;43.53
69411;BME280;56604;48.652;9.194;2022-08-01T12:05:05;96393.41;;;27.41;43.54
69411;BME280;56604;48.652;9.194;2022-08-01T12:07:32;96396.09;;;27.41;42.97
69411;BME280;56604;48.652;9.194;2022-08-01T12:12:32;96390.41;;;26.75;44.90
69411;BME280;56604;48.652;9.194;2022-08-01T12:15:04;96390.84;;;26.93;44.47
69411;BME280;56604;48.652;9.194;2022-08-01T12:20:29;96383.19;;;27.30;43.55
69411;BME280;56604;48.652;9.194;2022-08-01T12:22:54;96378.63;;;27.34;43.20
69411;BME280;56604;48.652;9.194;2022-08-01T12:25:20;96380.91;;;27.52;43.30
69411;BME280;56604;48.652;9.194;2022-08-01T12:27:47;96373.19;;;27.15;43.20
69411;BME280;56604;48.652;9.194;2022-08-01T12:30:15;96377.38;;;27.48;43.27
69411;BME280;56604;48.652;9.194;2022-08-01T12:32:42;96374.94;;;27.62;44.46
69411;BME280;56604;48.652;9.194;2022-08-01T12:35:09;96370.69;;;27.42;44.22
69411;BME280;56604;48.652;9.194;2022-08-01T12:37:41;96370.97;;;27.75;45.82
69411;BME280;56604;48.652;9.194;2022-08-01T12:40:32;96363.31;;;27.58;44.25
69411;BME280;56604;48.652;9.194;2022-08-01T12:43:00;96366.00;;;27.58;43.47
69411;BME280;56604;48.652;9.194;2022-08-01T12:45:38;96360.88;;;27.53;44.39
69411;BME280;56604;48.652;9.194;2022-08-01T12:48:14;96355.16;;;27.97;44.18
69411;BME280;56604;48.652;9.194;2022-08-01T12:50:45;96361.72;;;27.38;43.84
69411;BME280;56604;48.652;9.194;2022-08-01T12:53:11;96352.50;;;27.39;43.58
69411;BME280;56604;48.652;9.194;2022-08-01T12:55:53;96351.19;;;27.91;43.72
69411;BME280;56604;48.652;9.194;2022-08-01T12:58:20;96345.59;;;28.03;42.14
69411;BME280;56604;48.652;9.194;2022-08-01T13:00:48;96347.78;;;28.17;41.25
69411;BME280;56604;48.652;9.194;2022-08-01T13:03:17;96349.50;;;28.29;41.08
69411;BME280;56604;48.652;9.194;2022-08-01T13:05:56;96349.91;;;27.65;41.12
69411;BME280;56604;48.652;9.194;2022-08-01T13:11:04;96357.66;;;27.86;42.18
69411;BME280;56604;48.652;9.194;2022-08-01T13:13:41;96352.22;;;27.44;42.62
69411;BME280;56604;48.652;9.194;2022-08-01T13:16:08;96350.72;;;27.27;43.42
69411;BME280;56604;48.652;9.194;2022-08-01T13:18:35;96358.31;;;27.21;43.32
69411;BME280;56604;48.652;9.194;2022-08-01T13:21:13;96362.50;;;27.03;42.66
69411;BME280;56604;48.652;9.194;2022-08-01T13:26:50;96348.91;;;27.93;43.74
69411;BME280;56604;48.652;9.194;2022-08-01T13:29:21;96345.72;;;27.68;41.90
69411;BME280;56604;48.652;9.194;2022-08-01T13:31:48;96341.38;;;27.63;42.58
69411;BME280;56604;48.652;9.194;2022-08-01T13:34:14;96334.19;;;27.90;41.71
69411;BME280;56604;48.652;9.194;2022-08-01T13:36:40;96334.78;;;28.03;42.02
69411;BME280;56604;48.652;9.194;2022-08-01T13:39:05;96330.84;;;27.77;42.50
69411;BME280;56604;48.652;9.194;2022-08-01T13:41:50;96326.53;;;28.15;40.28